createdAt,value
2019-01-28T00:00:01.852Z,2.73
2019-01-28T00:05:01.143Z,2.59
2019-01-28T00:10:01.396Z,2.59
2019-01-28T00:15:01.667Z,2.58
2019-01-28T00:20:02.008Z,2.56
2019-01-28T00:25:01.238Z,2.58
2019-01-28T00:30:01.479Z,2.55
2019-01-28T00:35:01.773Z,2.64
2019-01-28T00:40:02.092Z,2.38
2019-01-28T00:45:01.320Z,2.38
2019-01-28T00:50:01.618Z,2.41
2019-01-28T00:55:01.914Z,2.46
2019-01-28T01:00:01.280Z,2.64
2019-01-28T01:05:01.590Z,2.42
2019-01-28T01:10:01.873Z,2.42
2019-01-28T01:15:01.150Z,2.47
2019-01-28T01:20:01.462Z,2.64
2019-01-28T01:25:01.757Z,2.64
2019-01-28T01:30:02.038Z,2.61
2019-01-28T01:35:01.353Z,2.51
2019-01-28T01:40:01.826Z,2.41
2019-01-28T01:45:01.091Z,2.37
2019-01-28T01:50:01.468Z,2.38
2019-01-28T01:55:01.787Z,2.58
2019-01-28T02:00:02.168Z,2.44
2019-01-28T02:05:01.475Z,2.44
2019-01-28T02:10:01.683Z,2.38
2019-01-28T02:15:01.956Z,2.35
2019-01-28T02:20:01.416Z,2.38
2019-01-28T02:25:01.727Z,2.34
2019-01-28T02:30:02.016Z,2.37
2019-01-28T02:35:01.296Z,2.62
2019-01-28T02:40:01.663Z,2.6
2019-01-28T02:45:01.965Z,2.4
2019-01-28T02:50:01.211Z,2.38
2019-01-28T02:55:01.500Z,2.56
2019-01-28T03:00:01.924Z,2.37
2019-01-28T03:05:01.220Z,2.28
2019-01-28T03:10:01.588Z,2.25
2019-01-28T03:15:01.850Z,2.34
2019-01-28T03:20:01.166Z,2.22
2019-01-28T03:25:01.491Z,2.44
2019-01-28T03:30:01.720Z,2.24
2019-01-28T03:35:01.998Z,2.4
2019-01-28T03:40:01.112Z,2.23
2019-01-28T03:45:01.378Z,2.41
2019-01-28T03:50:01.661Z,2.28
2019-01-28T03:55:02.007Z,2.22
2019-01-28T04:00:01.267Z,2.09
2019-01-28T04:05:01.561Z,2.12
2019-01-28T04:10:01.859Z,1.97
2019-01-28T04:15:01.224Z,2
2019-01-28T04:20:01.518Z,1.94
2019-01-28T04:25:01.798Z,1.85
2019-01-28T04:30:02.121Z,1.73
2019-01-28T04:35:01.403Z,1.66
2019-01-28T04:40:01.672Z,1.56
2019-01-28T04:45:01.941Z,1.6
2019-01-28T04:50:01.237Z,1.54
2019-01-28T04:55:01.583Z,1.47
2019-01-28T05:00:01.889Z,1.49
2019-01-28T05:05:01.201Z,1.5
2019-01-28T05:10:01.567Z,1.54
2019-01-28T05:15:01.879Z,1.47
2019-01-28T05:20:01.162Z,1.6
2019-01-28T05:25:01.434Z,1.48
2019-01-28T05:30:01.695Z,1.36
2019-01-28T05:35:02.038Z,1.38
2019-01-28T05:40:01.994Z,1.38
2019-01-28T05:45:01.224Z,1.31
2019-01-28T05:50:01.571Z,1.21
2019-01-28T05:55:01.828Z,1.2
2019-01-28T06:00:01.092Z,1.4
2019-01-28T06:05:01.355Z,1.27
2019-01-28T06:10:01.656Z,1.31
2019-01-28T06:15:01.935Z,1.41
2019-01-28T06:20:01.200Z,1.46
2019-01-28T06:25:01.452Z,1.54
2019-01-28T06:30:01.726Z,1.47
2019-01-28T06:35:02.027Z,1.47
2019-01-28T06:40:01.279Z,1.45
2019-01-28T06:45:02.224Z,1.46
2019-01-28T06:50:01.611Z,1.49
2019-01-28T06:55:01.896Z,1.45
2019-01-28T07:00:01.167Z,1.36
2019-01-28T07:05:01.475Z,1.31
2019-01-28T07:10:01.765Z,1.17
2019-01-28T07:15:01.993Z,1.08
2019-01-28T07:20:01.237Z,1.12
2019-01-28T07:25:01.536Z,1.27
2019-01-28T07:30:01.814Z,1.14
2019-01-28T07:35:01.098Z,1.19
2019-01-28T07:40:01.377Z,1.34
2019-01-28T07:45:01.714Z,1.45
2019-01-28T07:50:02.006Z,1.43
2019-01-28T07:55:01.253Z,1.46
2019-01-28T08:00:01.530Z,1.61
2019-01-28T08:05:01.830Z,1.63
2019-01-28T08:10:02.068Z,1.57
2019-01-28T08:15:01.315Z,1.5
2019-01-28T08:20:01.632Z,1.6
2019-01-28T08:25:02.014Z,1.69
2019-01-28T08:30:01.249Z,1.94
2019-01-28T08:35:01.540Z,1.99
2019-01-28T08:40:01.825Z,2.11
2019-01-28T08:45:01.134Z,2.11
2019-01-28T08:50:01.371Z,2.16
2019-01-28T08:55:01.643Z,2.11
2019-01-28T09:00:01.930Z,2.15
2019-01-28T09:05:01.230Z,2.19
2019-01-28T09:10:01.534Z,2.23
2019-01-28T09:15:02.920Z,2.25
2019-01-28T09:20:01.274Z,2.24
2019-01-28T09:25:01.524Z,2.25
2019-01-28T09:30:01.756Z,2.24
2019-01-28T09:35:02.037Z,2.29
2019-01-28T09:40:01.278Z,2.34
2019-01-28T09:45:01.541Z,2.37
2019-01-28T09:50:01.846Z,2.52
2019-01-28T09:55:01.144Z,2.54
2019-01-28T10:00:01.445Z,2.55
2019-01-28T10:05:01.710Z,2.55
2019-01-28T10:10:01.980Z,2.54
2019-01-28T10:15:01.241Z,2.56
2019-01-28T10:20:01.536Z,2.66
2019-01-28T10:25:01.807Z,2.61
2019-01-28T10:30:02.068Z,2.56
2019-01-28T10:35:01.318Z,2.43
2019-01-28T10:40:01.589Z,2.36
2019-01-28T10:45:01.832Z,2.37
2019-01-28T10:50:02.093Z,2.34
2019-01-28T10:55:01.341Z,2.29
2019-01-28T11:00:01.621Z,2.14
2019-01-28T11:05:01.914Z,2.07
2019-01-28T11:10:01.170Z,2.02
2019-01-28T11:15:01.752Z,1.98
2019-01-28T11:20:01.485Z,2.06
2019-01-28T11:25:02.179Z,2.08
2019-01-28T11:30:01.988Z,2.06
2019-01-28T11:35:01.503Z,2.03
2019-01-28T11:40:01.959Z,2.08
2019-01-28T11:45:01.397Z,2.16
2019-01-28T11:50:01.900Z,2.24
2019-01-28T11:55:01.508Z,2.42
2019-01-28T12:00:01.772Z,2.56
2019-01-28T12:05:02.061Z,2.57
2019-01-28T12:10:01.309Z,2.64
2019-01-28T12:15:01.585Z,2.73
2019-01-28T12:20:01.871Z,2.76
2019-01-28T12:25:01.173Z,2.78
2019-01-28T12:30:01.458Z,2.78
2019-01-28T12:35:01.779Z,2.81
2019-01-28T12:40:02.051Z,2.97
2019-01-28T12:45:01.305Z,2.97
2019-01-28T12:50:01.572Z,3
2019-01-28T12:55:01.866Z,3.02
2019-01-28T13:00:01.152Z,3.06
2019-01-28T13:05:01.449Z,2.98
2019-01-28T13:10:01.731Z,3.02
2019-01-28T13:15:02.021Z,3.06
2019-01-28T13:20:01.293Z,2.98
2019-01-28T13:25:01.557Z,2.97
2019-01-28T13:30:01.796Z,2.93
2019-01-28T13:35:01.153Z,2.9
2019-01-28T13:40:01.432Z,2.9
2019-01-28T13:45:01.710Z,2.8
2019-01-28T13:50:01.970Z,2.74
2019-01-28T13:55:01.226Z,2.52
2019-01-28T14:00:01.508Z,2.51
2019-01-28T14:05:01.796Z,2.7
2019-01-28T14:10:02.081Z,2.83
2019-01-28T14:15:01.339Z,2.69
2019-01-28T14:20:01.930Z,2.65
2019-01-28T14:25:01.193Z,2.62
2019-01-28T14:30:01.503Z,2.55
2019-01-28T14:35:01.827Z,2.46
2019-01-28T14:40:01.104Z,2.59
2019-01-28T14:45:01.393Z,2.59
2019-01-28T14:50:01.755Z,2.81
2019-01-28T14:55:02.047Z,2.68
2019-01-28T15:00:01.270Z,2.82
2019-01-28T15:05:01.550Z,2.75
2019-01-28T15:10:01.837Z,2.74
2019-01-28T15:15:01.115Z,2.85
2019-01-28T15:20:02.336Z,2.75
2019-01-28T15:25:01.124Z,2.75
2019-01-28T15:30:01.397Z,2.76
2019-01-28T15:35:01.707Z,2.75
2019-01-28T15:40:01.970Z,2.75
2019-01-28T15:45:01.210Z,2.78
2019-01-28T15:50:01.515Z,2.83
2019-01-28T15:55:01.840Z,2.87
2019-01-28T16:00:01.136Z,2.93
2019-01-28T16:05:01.450Z,2.96
2019-01-28T16:10:01.763Z,3.06
2019-01-28T16:15:02.035Z,3.02
2019-01-28T16:20:01.504Z,3.01
2019-01-28T16:25:01.972Z,3.05
2019-01-28T16:30:01.239Z,3.11
2019-01-28T16:35:01.580Z,3.09
2019-01-28T16:40:01.864Z,2.95
2019-01-28T16:45:01.145Z,2.76
2019-01-28T16:50:01.407Z,2.69
2019-01-28T16:55:01.660Z,2.66
2019-01-28T17:00:01.948Z,2.65
2019-01-28T17:05:01.242Z,2.74
2019-01-28T17:10:01.521Z,2.78
2019-01-28T17:15:01.784Z,2.69
2019-01-28T17:20:02.077Z,2.66
2019-01-28T17:25:01.292Z,2.74
2019-01-28T17:30:01.539Z,2.71
2019-01-28T17:35:01.789Z,2.68
2019-01-28T17:40:02.055Z,2.67
2019-01-28T17:45:01.273Z,2.7
2019-01-28T17:50:01.875Z,2.69
2019-01-28T17:55:01.222Z,2.68
2019-01-28T18:00:01.550Z,2.64
2019-01-28T18:05:01.822Z,2.6
2019-01-28T18:10:01.100Z,2.58
2019-01-28T18:15:01.396Z,2.56
2019-01-28T18:20:01.718Z,2.47
2019-01-28T18:25:01.978Z,2.44
2019-01-28T18:30:01.223Z,2.42
2019-01-28T18:35:01.532Z,2.35
2019-01-28T18:40:01.835Z,2.25
2019-01-28T18:45:01.097Z,2.26
2019-01-28T18:50:01.365Z,2.22
2019-01-28T18:55:01.675Z,2.19
2019-01-28T19:00:01.978Z,2.13
2019-01-28T19:05:01.238Z,2.11
2019-01-28T19:10:01.521Z,2.06
2019-01-28T19:15:01.807Z,1.93
2019-01-28T19:20:01.108Z,1.8
2019-01-28T19:25:01.396Z,1.71
2019-01-28T19:30:01.636Z,1.72
2019-01-28T19:35:02.003Z,1.73
2019-01-28T19:40:01.297Z,1.78
2019-01-28T19:45:01.644Z,1.86
2019-01-28T19:50:01.933Z,1.92
2019-01-28T19:55:01.219Z,1.95
2019-01-28T20:00:01.507Z,1.98
2019-01-28T20:05:01.773Z,2.01
2019-01-28T20:10:02.009Z,2.03
2019-01-28T20:15:01.281Z,2.06
2019-01-28T20:20:01.578Z,2.12
2019-01-28T20:25:01.870Z,2.12
2019-01-28T20:30:01.212Z,2.09
2019-01-28T20:35:01.501Z,2.05
2019-01-28T20:40:01.744Z,2.01
2019-01-28T20:45:02.009Z,2.03
2019-01-28T20:50:01.275Z,2
2019-01-28T20:55:01.603Z,2.02
2019-01-28T21:00:01.940Z,2.02
2019-01-28T21:05:01.311Z,2.03
2019-01-28T21:10:01.713Z,2.02
2019-01-28T21:15:01.208Z,2
2019-01-28T21:20:01.512Z,1.92
2019-01-28T21:25:01.819Z,1.9
2019-01-28T21:30:01.095Z,1.87
2019-01-28T21:35:01.398Z,1.8
2019-01-28T21:40:01.675Z,1.83
2019-01-28T21:45:01.968Z,1.84
2019-01-28T21:50:01.194Z,1.85
2019-01-28T21:55:01.486Z,1.82
2019-01-28T22:00:01.795Z,1.79
2019-01-28T22:05:01.154Z,1.71
2019-01-28T22:10:01.598Z,1.71
2019-01-28T22:15:01.899Z,1.7
2019-01-28T22:20:01.176Z,1.71
2019-01-28T22:25:01.462Z,1.72
2019-01-28T22:30:01.769Z,1.7
2019-01-28T22:35:02.059Z,1.7
2019-01-28T22:40:01.304Z,1.66
2019-01-28T22:45:01.587Z,1.62
2019-01-28T22:50:01.868Z,1.57
2019-01-28T22:55:01.146Z,1.62
2019-01-28T23:00:01.426Z,1.63
2019-01-28T23:05:01.795Z,1.63
2019-01-28T23:10:02.012Z,1.64
2019-01-28T23:15:01.249Z,1.65
2019-01-28T23:20:01.553Z,1.62
2019-01-28T23:25:01.881Z,1.62
2019-01-28T23:30:01.150Z,1.63
2019-01-28T23:35:01.482Z,1.62
2019-01-28T23:40:01.775Z,1.66
2019-01-28T23:45:01.168Z,1.67
2019-01-28T23:50:01.455Z,1.64
2019-01-28T23:55:01.714Z,1.66
